Time;durP1;ratioP1;P1;durP2;ratioP2;P2;SDS_P1;SDS_P2;PMS_P1;PMS_P2;Temp;Humidity;BMP_temperature;BMP_pressure;BME280_temperature;BME280_humidity;BME280_pressure;Samples;Min_cycle;Max_cycle;Signal;HPM_P1;HPM_P2
2023/02/01 00:01:36;;;;;;;34.33;4.30;;;6.40;98.80;;;;;;4666547;30;20058;-92
2023/02/01 00:04:02;;;;;;;30.25;4.88;;;6.30;98.80;;;;;;4665658;30;20092;-92
2023/02/01 00:06:27;;;;;;;29.70;4.97;;;6.40;99.10;;;;;;4661368;30;20522;-91
2023/02/01 00:08:54;;;;;;;23.05;4.40;;;6.40;98.80;;;;;;4650563;30;20051;-94
2023/02/01 00:11:20;;;;;;;25.55;4.72;;;6.40;98.70;;;;;;4655083;30;20061;-92
2023/02/01 00:13:46;;;;;;;27.95;4.53;;;6.40;98.80;;;;;;4659161;30;20058;-91
2023/02/01 00:16:17;;;;;;;27.45;4.60;;;6.40;98.70;;;;;;4658421;30;20058;-92
2023/02/01 00:18:44;;;;;;;29.25;4.90;;;6.40;98.70;;;;;;4650411;30;20050;-91
2023/02/01 00:21:11;;;;;;;30.58;5.07;;;6.40;98.70;;;;;;4664690;30;20051;-92
2023/02/01 00:23:38;;;;;;;25.15;4.03;;;6.40;98.70;;;;;;4667594;30;20488;-92
2023/02/01 00:26:05;;;;;;;28.50;4.38;;;6.40;98.70;;;;;;4660438;30;20066;-91
2023/02/01 00:28:31;;;;;;;28.05;4.80;;;6.40;98.70;;;;;;4654932;30;20084;-91
2023/02/01 00:31:00;;;;;;;25.70;4.70;;;6.40;98.70;;;;;;4665193;30;20042;-92
2023/02/01 00:33:26;;;;;;;22.05;3.85;;;6.40;98.70;;;;;;4657048;30;20050;-91
2023/02/01 00:35:55;;;;;;;22.60;4.80;;;6.40;98.70;;;;;;4663191;30;20408;-92
2023/02/01 00:38:21;;;;;;;23.90;4.13;;;6.40;98.70;;;;;;4650167;30;20565;-92
2023/02/01 00:40:46;;;;;;;30.13;4.47;;;6.40;98.80;;;;;;4656923;30;20125;-92
2023/02/01 00:43:12;;;;;;;22.08;4.18;;;6.40;98.80;;;;;;4659541;30;20057;-92
2023/02/01 00:45:38;;;;;;;28.35;4.63;;;6.40;98.70;;;;;;4658683;30;20104;-93
2023/02/01 00:48:04;;;;;;;32.65;4.25;;;6.40;98.80;;;;;;4668295;30;20046;-91
2023/02/01 00:50:29;;;;;;;25.73;4.05;;;6.40;98.80;;;;;;4656541;30;20047;-92
2023/02/01 00:52:55;;;;;;;27.10;4.55;;;6.40;98.80;;;;;;4650106;30;20047;-91
2023/02/01 00:55:20;;;;;;;24.48;4.75;;;6.40;98.90;;;;;;4667291;30;20519;-92
2023/02/01 00:57:49;;;;;;;27.05;4.07;;;6.40;98.90;;;;;;4652150;30;20058;-93
2023/02/01 01:00:15;;;;;;;25.65;4.25;;;6.40;98.90;;;;;;4664008;30;20114;-92
2023/02/01 01:02:42;;;;;;;25.13;4.50;;;6.40;98.90;;;;;;4677633;30;20046;-92
2023/02/01 01:05:07;;;;;;;26.08;4.60;;;6.40;98.90;;;;;;4669901;30;20062;-90
2023/02/01 01:07:33;;;;;;;26.40;4.43;;;6.40;98.90;;;;;;4683707;30;20042;-90
2023/02/01 01:09:59;;;;;;;24.58;4.28;;;6.40;98.80;;;;;;4668598;30;20104;-92
2023/02/01 01:12:24;;;;;;;24.27;4.22;;;6.40;98.80;;;;;;4651852;30;20126;-92
2023/02/01 01:14:50;;;;;;;25.52;4.63;;;6.40;98.80;;;;;;4661729;30;20496;-92
2023/02/01 01:17:18;;;;;;;25.17;4.53;;;6.40;98.80;;;;;;4683959;30;20133;-93
2023/02/01 01:19:44;;;;;;;27.35;4.80;;;6.40;98.80;;;;;;4684119;30;20137;-92
2023/02/01 01:22:09;;;;;;;22.85;4.18;;;6.40;98.80;;;;;;4683991;30;20100;-92
2023/02/01 01:24:35;;;;;;;26.40;5.15;;;6.50;98.80;;;;;;4668675;30;20050;-91
2023/02/01 01:27:00;;;;;;;28.20;4.97;;;6.50;98.90;;;;;;4654255;30;20081;-90
2023/02/01 01:29:26;;;;;;;20.58;3.88;;;6.40;98.80;;;;;;4663562;30;20460;-92
2023/02/01 01:31:52;;;;;;;26.52;4.90;;;6.50;98.90;;;;;;4674980;30;20126;-91
2023/02/01 01:34:17;;;;;;;24.95;4.07;;;6.40;98.90;;;;;;4679311;30;20112;-92
2023/02/01 01:36:43;;;;;;;30.88;4.95;;;6.50;98.90;;;;;;4659898;30;20057;-91
2023/02/01 01:39:08;;;;;;;27.35;4.47;;;6.50;98.90;;;;;;4666717;30;20054;-91
2023/02/01 01:41:34;;;;;;;26.52;4.68;;;6.50;99.00;;;;;;4666157;30;20053;-92
2023/02/01 01:44:03;;;;;;;29.05;4.75;;;6.50;99.00;;;;;;4655677;30;20085;-90
2023/02/01 01:46:32;;;;;;;28.58;4.32;;;6.50;99.00;;;;;;4661103;30;20531;-94
2023/02/01 01:49:10;;;;;;;27.92;4.80;;;6.50;99.00;;;;;;4667090;30;20109;-92
2023/02/01 01:51:44;;;;;;;24.02;4.45;;;6.50;99.10;;;;;;4684249;30;20057;-92
2023/02/01 01:54:31;;;;;;;23.25;4.30;;;6.50;99.20;;;;;;4660824;30;20058;-92
2023/02/01 01:57:04;;;;;;;28.67;4.13;;;6.50;99.20;;;;;;4667048;30;20105;-92
2023/02/01 01:59:32;;;;;;;23.08;3.80;;;6.50;99.40;;;;;;4651945;30;20120;-91
2023/02/01 02:01:58;;;;;;;27.15;4.68;;;6.50;99.50;;;;;;4651151;30;20062;-91
2023/02/01 02:04:24;;;;;;;27.95;4.57;;;6.50;99.50;;;;;;4661021;30;20058;-93
2023/02/01 02:06:55;;;;;;;30.73;4.43;;;6.50;99.60;;;;;;4662253;30;20497;-92
2023/02/01 02:09:21;;;;;;;27.40;4.47;;;6.50;99.70;;;;;;4655779;30;20047;-92
2023/02/01 02:11:46;;;;;;;29.50;5.13;;;6.50;99.70;;;;;;4652161;30;20141;-92
2023/02/01 02:14:15;;;;;;;26.55;4.72;;;6.50;99.80;;;;;;4649410;30;20058;-92
2023/02/01 02:17:10;;;;;;;27.83;4.80;;;6.50;99.90;;;;;;4662111;30;20054;-93
2023/02/01 02:20:09;;;;;;;24.42;4.18;;;6.50;99.90;;;;;;4665643;30;20065;-92
2023/02/01 02:23:06;;;;;;;26.90;4.03;;;6.50;99.90;;;;;;4665322;30;20054;-93
2023/02/01 02:26:00;;;;;;;26.42;4.15;;;6.50;99.90;;;;;;4656261;30;20062;-92
2023/02/01 02:28:49;;;;;;;32.55;4.45;;;6.40;99.90;;;;;;4648672;30;20413;-93
2023/02/01 02:31:33;;;;;;;20.23;3.60;;;6.40;99.90;;;;;;4664263;30;20055;-94
2023/02/01 02:34:01;;;;;;;27.33;4.60;;;6.40;99.90;;;;;;4665041;30;20517;-94
2023/02/01 02:36:38;;;;;;;30.13;4.88;;;6.40;99.90;;;;;;4663397;30;20516;-92
2023/02/01 02:39:21;;;;;;;29.17;5.30;;;6.40;99.90;;;;;;4670343;30;20050;-92
2023/02/01 02:48:17;;;;;;;26.83;4.55;;;6.40;99.90;;;;;;4704743;30;20076;-93
2023/02/01 03:05:06;;;;;;;25.00;3.97;;;6.30;99.90;;;;;;4688099;30;20476;-92
2023/02/01 03:07:44;;;;;;;34.55;5.32;;;6.30;99.90;;;;;;4691423;30;20061;-95
2023/02/01 03:10:31;;;;;;;30.50;4.75;;;6.30;99.90;;;;;;4703901;30;20387;-93
2023/02/01 03:13:07;;;;;;;23.75;4.38;;;6.30;99.90;;;;;;4690917;30;20487;-93
2023/02/01 03:15:58;;;;;;;26.02;4.50;;;6.40;99.90;;;;;;4703659;30;20176;-92
2023/02/01 03:18:33;;;;;;;25.00;4.32;;;6.40;99.90;;;;;;4671777;30;20050;-94
2023/02/01 03:21:03;;;;;;;26.23;4.65;;;6.30;99.90;;;;;;4702344;30;20088;-93
2023/02/01 03:23:33;;;;;;;23.95;4.50;;;6.30;99.90;;;;;;4688200;30;20049;-93
2023/02/01 03:26:00;;;;;;;27.83;4.63;;;6.30;99.90;;;;;;4703900;30;20060;-93
2023/02/01 03:28:29;;;;;;;27.80;4.47;;;6.40;99.90;;;;;;4688477;30;20050;-92
2023/02/01 03:30:55;;;;;;;25.85;4.38;;;6.40;99.90;;;;;;4703771;30;20049;-94
2023/02/01 03:33:24;;;;;;;28.33;4.88;;;6.40;99.90;;;;;;4687844;30;20052;-93
2023/02/01 03:35:59;;;;;;;27.17;3.75;;;6.40;99.90;;;;;;4703831;30;20053;-93
2023/02/01 03:38:47;;;;;;;23.25;3.90;;;6.40;99.90;;;;;;4703487;30;20132;-93
2023/02/01 03:41:28;;;;;;;27.48;4.63;;;6.40;99.90;;;;;;4688196;30;20053;-92
2023/02/01 03:44:13;;;;;;;27.80;4.85;;;6.40;99.90;;;;;;4716600;30;20114;-91
2023/02/01 03:47:11;;;;;;;25.70;4.50;;;6.40;99.90;;;;;;4686975;30;20063;-92
2023/02/01 03:49:41;;;;;;;19.85;3.88;;;6.40;99.90;;;;;;4686396;30;20518;-93
2023/02/01 03:52:18;;;;;;;21.67;3.80;;;6.40;99.90;;;;;;4703236;30;20065;-92
2023/02/01 03:54:44;;;;;;;26.27;4.18;;;6.40;99.90;;;;;;4687234;30;20045;-93
2023/02/01 03:57:14;;;;;;;23.88;4.65;;;6.40;99.90;;;;;;4717312;30;20056;-93
2023/02/01 03:59:45;;;;;;;24.75;4.30;;;6.40;99.90;;;;;;4687360;30;20053;-93
2023/02/01 04:02:13;;;;;;;23.30;4.85;;;6.40;99.90;;;;;;4687807;30;20495;-91
2023/02/01 04:04:38;;;;;;;27.50;4.75;;;6.40;99.90;;;;;;4689496;30;20525;-93
2023/02/01 04:07:04;;;;;;;24.08;4.03;;;6.40;99.90;;;;;;4687631;30;20058;-93
2023/02/01 04:09:30;;;;;;;23.05;4.45;;;6.40;99.90;;;;;;4687317;30;20857;-94
2023/02/01 04:11:55;;;;;;;32.22;4.65;;;6.40;99.90;;;;;;4687331;30;20474;-91
2023/02/01 04:14:21;;;;;;;24.55;4.07;;;6.40;99.90;;;;;;4702257;30;20042;-91
2023/02/01 04:16:47;;;;;;;28.42;4.88;;;6.40;99.90;;;;;;4702656;30;20053;-93
2023/02/01 04:19:12;;;;;;;24.85;4.03;;;6.40;99.90;;;;;;4703024;30;20099;-92
2023/02/01 04:21:41;;;;;;;21.50;4.40;;;6.40;99.90;;;;;;4687124;30;20132;-93
2023/02/01 04:24:07;;;;;;;28.30;4.75;;;6.40;99.90;;;;;;4702398;30;20453;-92
2023/02/01 04:26:32;;;;;;;29.02;4.55;;;6.40;99.90;;;;;;4689489;30;20077;-93
2023/02/01 04:29:00;;;;;;;27.80;4.78;;;6.40;99.90;;;;;;4686541;30;20057;-92
2023/02/01 04:31:27;;;;;;;31.10;5.25;;;6.40;99.90;;;;;;4691422;30;20389;-93
2023/02/01 04:33:54;;;;;;;25.90;4.70;;;6.40;99.90;;;;;;4686705;30;20052;-92
2023/02/01 04:36:23;;;;;;;24.52;4.50;;;6.40;99.90;;;;;;4709822;30;20064;-92
2023/02/01 04:38:50;;;;;;;32.53;4.88;;;6.40;99.90;;;;;;4704394;30;20051;-92
2023/02/01 04:41:18;;;;;;;29.45;4.60;;;6.40;99.90;;;;;;4719552;30;20071;-91
2023/02/01 04:43:48;;;;;;;28.67;4.80;;;6.40;99.90;;;;;;4687100;30;20061;-94
2023/02/01 04:46:14;;;;;;;23.73;4.28;;;6.40;99.90;;;;;;4702200;30;20132;-92
2023/02/01 04:48:40;;;;;;;28.60;4.80;;;6.40;99.90;;;;;;4686821;30;20084;-92
2023/02/01 04:51:06;;;;;;;25.95;4.10;;;6.40;99.90;;;;;;4702477;30;20061;-92
2023/02/01 04:53:32;;;;;;;30.33;4.32;;;6.40;99.90;;;;;;4718367;30;20049;-92
2023/02/01 04:55:57;;;;;;;26.83;4.38;;;6.40;99.90;;;;;;4704200;30;20399;-92
2023/02/01 04:58:23;;;;;;;28.88;4.00;;;6.40;99.90;;;;;;4692305;30;20061;-91
2023/02/01 05:00:51;;;;;;;22.33;3.92;;;6.40;99.90;;;;;;4727779;30;20107;-92
2023/02/01 05:03:18;;;;;;;28.55;4.70;;;6.40;99.90;;;;;;4698912;30;20045;-92
2023/02/01 05:05:44;;;;;;;25.30;3.80;;;6.40;99.90;;;;;;4710420;30;20049;-92
2023/02/01 05:08:09;;;;;;;24.27;4.82;;;6.40;99.90;;;;;;4691572;30;20052;-92
2023/02/01 05:10:35;;;;;;;24.10;4.10;;;6.40;99.90;;;;;;4702346;30;20059;-93
2023/02/01 05:15:47;;;;;;;25.85;3.97;;;6.40;99.90;;;;;;4718725;30;20057;-92
2023/02/01 05:18:13;;;;;;;24.92;4.40;;;6.40;99.90;;;;;;4717394;30;20041;-92
2023/02/01 05:20:39;;;;;;;25.92;4.60;;;6.40;99.90;;;;;;4705192;30;20076;-91
2023/02/01 05:23:05;;;;;;;26.65;4.75;;;6.40;99.90;;;;;;4702184;30;20479;-92
2023/02/01 05:25:31;;;;;;;25.42;3.85;;;6.40;99.90;;;;;;4685183;30;20053;-92
2023/02/01 05:27:56;;;;;;;22.13;3.97;;;6.40;99.90;;;;;;4701993;30;20107;-93
2023/02/01 05:30:22;;;;;;;19.45;3.92;;;6.40;99.90;;;;;;4686217;30;20081;-94
2023/02/01 05:32:52;;;;;;;27.20;4.00;;;6.40;99.90;;;;;;4686129;30;20458;-92
2023/02/01 05:35:18;;;;;;;30.42;4.35;;;6.40;99.90;;;;;;4686468;30;20064;-92
2023/02/01 05:37:44;;;;;;;25.33;4.82;;;6.40;99.90;;;;;;4685987;30;20049;-91
2023/02/01 05:40:13;;;;;;;25.23;4.07;;;6.40;99.90;;;;;;4701264;30;20049;-94
2023/02/01 05:42:38;;;;;;;26.40;4.38;;;6.40;99.90;;;;;;4717126;30;20188;-92
2023/02/01 05:45:05;;;;;;;27.27;4.32;;;6.50;99.90;;;;;;4707380;30;20152;-92
2023/02/01 05:48:24;;;;;;;27.10;4.47;;;6.50;99.90;;;;;;4700740;30;20058;-91
2023/02/01 05:51:11;;;;;;;23.40;4.15;;;6.50;99.90;;;;;;4700700;30;20052;-90
2023/02/01 05:54:06;;;;;;;22.75;4.15;;;6.50;99.90;;;;;;4685049;30;20079;-90
2023/02/01 05:56:38;;;;;;;23.07;3.43;;;6.50;99.90;;;;;;4963919;24;20066;-90
2023/02/01 05:59:45;;;;;;;23.20;4.07;;;6.50;99.90;;;;;;4697309;30;20503;-95
2023/02/01 06:05:36;;;;;;;25.38;4.57;;;6.50;99.90;;;;;;4649652;30;20067;-96
2023/02/01 06:08:12;;;;;;;26.00;3.85;;;6.50;99.90;;;;;;4656686;30;20420;-92
2023/02/01 06:11:00;;;;;;;24.67;4.10;;;6.50;99.90;;;;;;4657745;30;20475;-93
2023/02/01 06:13:26;;;;;;;25.90;4.30;;;6.50;99.90;;;;;;4651465;30;20054;-94
2023/02/01 06:16:02;;;;;;;24.50;4.22;;;6.50;99.90;;;;;;4677776;24;20053;-95
2023/02/01 06:18:38;;;;;;;25.15;4.10;;;6.50;99.90;;;;;;4698934;30;20077;-93
2023/02/01 06:21:04;;;;;;;21.98;3.80;;;6.50;99.90;;;;;;4685576;30;20110;-93
2023/02/01 06:23:30;;;;;;;27.13;4.47;;;6.50;99.90;;;;;;4687199;30;20390;-95
2023/02/01 06:26:05;;;;;;;24.40;3.83;;;6.50;99.90;;;;;;4692096;30;20089;-95
2023/02/01 06:28:32;;;;;;;21.38;4.10;;;6.50;99.90;;;;;;4721228;30;20053;-94
2023/02/01 06:31:07;;;;;;;23.05;3.92;;;6.50;99.90;;;;;;4693579;30;20050;-94
2023/02/01 06:36:15;;;;;;;26.80;4.00;;;6.50;99.90;;;;;;4676366;30;20121;-93
2023/02/01 06:38:46;;;;;;;20.95;3.65;;;6.50;99.90;;;;;;4683081;25;20178;-95
2023/02/01 06:41:26;;;;;;;32.63;4.50;;;6.50;99.90;;;;;;4667621;30;20043;-94
2023/02/01 06:43:52;;;;;;;25.13;4.07;;;6.50;99.90;;;;;;4667722;30;20062;-93
2023/02/01 06:46:21;;;;;;;25.55;4.03;;;6.50;99.90;;;;;;4666981;30;20046;-95
2023/02/01 06:49:05;;;;;;;25.80;4.05;;;6.50;99.90;;;;;;4667330;30;20061;-94
2023/02/01 06:51:43;;;;;;;20.35;3.80;;;6.50;99.90;;;;;;4667739;30;20113;-94
2023/02/01 06:54:24;;;;;;;30.00;4.07;;;6.50;99.90;;;;;;4666372;30;20143;-95
2023/02/01 06:57:42;;;;;;;22.92;3.83;;;6.50;99.90;;;;;;4696016;30;20054;-95
2023/02/01 07:11:14;;;;;;;25.85;3.80;;;6.40;99.90;;;;;;4724321;24;20120;-95
2023/02/01 07:13:54;;;;;;;24.23;4.25;;;6.40;99.90;;;;;;4702631;30;20061;-94
2023/02/01 07:16:24;;;;;;;26.05;4.43;;;6.40;99.90;;;;;;4704818;30;20053;-94
2023/02/01 07:19:38;;;;;;;25.42;4.18;;;6.40;99.90;;;;;;4690546;30;20144;-94
2023/02/01 07:22:12;;;;;;;23.08;3.78;;;6.50;99.90;;;;;;4705084;30;20053;-92
2023/02/01 07:24:38;;;;;;;22.33;3.78;;;6.50;99.90;;;;;;4688944;30;20046;-94
2023/02/01 07:27:24;;;;;;;25.00;4.65;;;6.50;99.90;;;;;;4689878;30;20107;-94
2023/02/01 07:29:52;;;;;;;24.52;3.67;;;6.50;99.90;;;;;;4705278;30;20104;-95
2023/02/01 07:32:21;;;;;;;28.23;4.07;;;6.50;99.90;;;;;;4689128;30;20060;-94
2023/02/01 07:34:49;;;;;;;24.38;3.88;;;6.50;99.90;;;;;;4689506;30;20058;-92
2023/02/01 07:37:42;;;;;;;26.67;3.90;;;6.60;99.90;;;;;;4688873;30;20057;-93
2023/02/01 07:40:09;;;;;;;28.13;4.72;;;6.50;99.90;;;;;;4704056;30;20050;-93
2023/02/01 07:42:44;;;;;;;26.15;4.22;;;6.50;99.90;;;;;;4703944;30;20056;-94
2023/02/01 07:45:13;;;;;;;17.65;3.70;;;6.60;99.90;;;;;;4688891;30;20064;-94
2023/02/01 07:47:49;;;;;;;29.48;4.45;;;6.60;99.90;;;;;;4689339;30;20587;-93
2023/02/01 07:50:17;;;;;;;29.30;4.28;;;6.60;99.90;;;;;;4704319;30;20057;-95
2023/02/01 07:52:48;;;;;;;18.77;3.60;;;6.60;99.90;;;;;;4688523;30;20091;-94
2023/02/01 07:55:17;;;;;;;26.98;4.07;;;6.60;99.90;;;;;;4688475;30;20057;-94
2023/02/01 07:57:52;;;;;;;24.85;3.83;;;6.60;99.90;;;;;;4689838;30;20495;-94
2023/02/01 08:03:39;;;;;;;30.77;4.13;;;6.60;99.90;;;;;;4685326;30;20500;-91
2023/02/01 08:06:15;;;;;;;23.88;4.07;;;6.60;99.90;;;;;;4683514;30;20057;-93
2023/02/01 08:08:44;;;;;;;22.17;3.92;;;6.50;99.90;;;;;;4687171;30;20575;-91
2023/02/01 08:11:11;;;;;;;25.60;4.18;;;6.50;99.90;;;;;;4693038;25;20149;-93
2023/02/01 08:13:36;;;;;;;23.23;3.50;;;6.50;99.90;;;;;;4671288;25;20049;-93
2023/02/01 08:16:05;;;;;;;21.88;3.75;;;6.50;99.90;;;;;;4719113;30;20498;-92
2023/02/01 08:18:35;;;;;;;23.95;3.78;;;6.50;99.90;;;;;;4719209;30;20088;-92
2023/02/01 08:21:07;;;;;;;24.75;4.03;;;6.50;99.90;;;;;;4713758;24;20093;-93
2023/02/01 08:23:34;;;;;;;27.30;4.03;;;6.60;99.90;;;;;;4681076;30;20097;-93
2023/02/01 08:26:11;;;;;;;24.25;4.03;;;6.60;99.90;;;;;;4711793;24;20148;-92
2023/02/01 08:28:57;;;;;;;23.08;4.10;;;6.60;99.90;;;;;;4685129;30;20066;-91
2023/02/01 08:31:28;;;;;;;24.25;3.85;;;6.60;99.90;;;;;;4697235;30;20041;-93
2023/02/01 08:34:03;;;;;;;29.38;4.57;;;6.60;99.90;;;;;;4701543;30;20053;-91
2023/02/01 08:36:38;;;;;;;27.35;4.05;;;6.60;99.90;;;;;;4701618;30;20049;-92
2023/02/01 08:39:08;;;;;;;24.98;4.05;;;6.60;99.90;;;;;;4697902;30;20052;-92
2023/02/01 08:41:34;;;;;;;27.50;4.88;;;6.60;99.90;;;;;;4706538;30;20362;-93
2023/02/01 08:44:00;;;;;;;28.08;4.40;;;6.60;99.90;;;;;;4686754;30;20068;-91
2023/02/01 08:46:28;;;;;;;23.45;3.80;;;6.60;99.90;;;;;;4685623;30;20073;-93
2023/02/01 08:49:03;;;;;;;26.27;4.35;;;6.70;99.90;;;;;;4685654;30;20049;-90
2023/02/01 08:51:44;;;;;;;24.90;3.70;;;6.60;99.90;;;;;;4684761;30;20055;-91
2023/02/01 08:54:16;;;;;;;25.02;3.88;;;6.70;99.90;;;;;;4686493;30;20061;-91
2023/02/01 08:56:48;;;;;;;25.60;4.20;;;6.70;99.90;;;;;;4685576;30;20057;-91
2023/02/01 08:59:25;;;;;;;23.63;4.03;;;6.70;99.90;;;;;;4685939;30;20156;-91
2023/02/01 09:02:03;;;;;;;24.70;4.38;;;6.70;99.90;;;;;;4685677;30;20411;-90
2023/02/01 09:04:44;;;;;;;22.45;3.55;;;6.70;99.90;;;;;;4700861;30;20139;-89
2023/02/01 09:07:19;;;;;;;26.17;3.88;;;6.70;99.90;;;;;;4686036;30;20136;-89
2023/02/01 09:09:45;;;;;;;26.20;3.92;;;6.70;99.90;;;;;;4685186;30;20493;-89
2023/02/01 09:12:24;;;;;;;24.23;3.80;;;6.70;99.90;;;;;;4684975;30;20057;-89
2023/02/01 09:14:53;;;;;;;22.33;4.18;;;6.80;99.90;;;;;;4701304;30;20049;-90
2023/02/01 09:17:19;;;;;;;26.33;4.68;;;6.80;99.90;;;;;;4699548;30;20515;-88
2023/02/01 09:19:44;;;;;;;26.67;3.80;;;6.70;99.90;;;;;;4685223;30;20418;-90
2023/02/01 09:25:19;;;;;;;28.60;4.25;;;6.80;99.90;;;;;;4693971;25;20479;-90
2023/02/01 09:27:46;;;;;;;27.88;3.58;;;6.70;99.90;;;;;;4667261;30;20058;-91
2023/02/01 09:30:18;;;;;;;28.85;4.30;;;6.70;99.90;;;;;;4660212;30;20133;-90
2023/02/01 09:32:50;;;;;;;25.15;4.15;;;6.80;99.90;;;;;;4649401;30;20058;-90
2023/02/01 09:35:47;;;;;;;22.20;4.15;;;6.70;99.90;;;;;;4649313;30;20065;-90
2023/02/01 09:38:20;;;;;;;22.90;3.65;;;6.80;99.90;;;;;;4653356;30;20046;-91
2023/02/01 09:40:58;;;;;;;;;;;6.80;99.90;;;;;;4635884;30;20094;-92
2023/02/01 09:44:04;;;;;;;23.67;3.78;;;6.70;99.90;;;;;;4643008;30;19986;-90
2023/02/01 09:46:33;;;;;;;23.20;3.85;;;6.80;99.90;;;;;;4634396;30;20059;-91
2023/02/01 09:49:08;;;;;;;20.00;3.80;;;6.80;99.90;;;;;;4645384;30;20062;-90
2023/02/01 09:51:43;;;;;;;30.13;4.00;;;6.80;99.90;;;;;;4650674;30;20567;-91
2023/02/01 09:54:44;;;;;;;24.67;3.90;;;6.80;99.90;;;;;;4665872;30;20142;-91
2023/02/01 09:57:36;;;;;;;18.98;3.60;;;6.80;99.90;;;;;;4666235;30;20090;-90
2023/02/01 10:00:26;;;;;;;25.02;3.85;;;6.80;99.90;;;;;;4650997;30;20134;-92
2023/02/01 10:02:55;;;;;;;22.85;3.75;;;6.70;99.90;;;;;;4645560;30;20520;-91
2023/02/01 10:06:02;;;;;;;22.40;3.72;;;6.80;99.90;;;;;;4633754;30;20137;-89
2023/02/01 10:09:04;;;;;;;23.15;3.72;;;6.80;99.90;;;;;;4634628;30;20052;-92
2023/02/01 10:12:10;;;;;;;19.63;3.80;;;6.70;99.90;;;;;;4633923;30;20055;-90
2023/02/01 10:15:22;;;;;;;19.77;3.60;;;6.70;99.90;;;;;;4633678;30;20050;-92
2023/02/01 10:18:34;;;;;;;28.17;3.88;;;6.70;99.90;;;;;;4672186;24;20133;-90
2023/02/01 10:21:08;;;;;;;21.25;3.40;;;6.70;99.90;;;;;;4687547;25;20058;-92
2023/02/01 10:24:30;;;;;;;23.58;4.03;;;6.70;99.90;;;;;;4682600;30;20141;-91
2023/02/01 10:27:30;;;;;;;21.95;3.78;;;6.70;99.90;;;;;;4667450;30;20065;-92
2023/02/01 10:30:37;;;;;;;22.50;4.05;;;6.70;99.90;;;;;;4683277;30;20065;-91
2023/02/01 10:33:28;;;;;;;14.43;2.78;;;6.70;99.90;;;;;;4667014;30;20058;-91
2023/02/01 10:37:14;;;;;;;23.35;3.40;;;6.70;99.90;;;;;;4700836;25;20028;-91
2023/02/01 10:39:53;;;;;;;23.00;3.10;;;6.70;99.90;;;;;;4696964;30;20108;-90
2023/02/01 10:42:31;;;;;;;24.55;3.72;;;6.70;99.90;;;;;;4698839;30;20058;-90
2023/02/01 10:45:11;;;;;;;22.25;3.80;;;6.70;99.90;;;;;;4674650;30;20492;-90
2023/02/01 10:47:37;;;;;;;24.90;3.92;;;6.70;99.90;;;;;;4666543;30;20061;-91
2023/02/01 10:50:36;;;;;;;27.02;4.07;;;6.80;99.90;;;;;;4696841;30;20077;-91
2023/02/01 10:53:13;;;;;;;24.23;3.67;;;6.80;99.90;;;;;;4684963;30;20081;-91
2023/02/01 10:55:53;;;;;;;21.27;3.28;;;6.80;99.90;;;;;;4699163;30;20075;-91
2023/02/01 10:58:25;;;;;;;23.17;3.90;;;6.80;99.90;;;;;;4703489;30;20041;-94
2023/02/01 11:01:02;;;;;;;18.27;3.55;;;6.80;99.90;;;;;;4697451;30;20132;-95
2023/02/01 11:04:13;;;;;;;21.63;3.72;;;6.90;99.90;;;;;;4713068;30;20491;-94
2023/02/01 11:07:16;;;;;;;22.58;3.80;;;6.90;99.90;;;;;;4705087;30;20048;-96
2023/02/01 11:10:03;;;;;;;20.00;4.33;;;6.90;99.90;;;;;;4689534;30;20057;-96
2023/02/01 11:13:35;;;;;;;;;;;;;;;;;;;;;
2023/02/01 11:16:03;;;;;;;20.70;3.42;;;6.90;99.90;;;;;;4622507;30;20077;-91
2023/02/01 11:18:37;;;;;;;20.85;4.10;;;6.90;99.90;;;;;;4661362;30;20061;-91
2023/02/01 11:21:04;;;;;;;24.42;3.92;;;6.90;99.90;;;;;;4686831;30;20092;-90
2023/02/01 11:23:36;;;;;;;21.83;3.55;;;6.90;99.90;;;;;;4676583;30;20054;-90
2023/02/01 11:26:12;;;;;;;23.90;3.65;;;7.00;99.90;;;;;;4685862;30;20108;-91
2023/02/01 11:28:41;;;;;;;22.77;4.00;;;7.00;99.90;;;;;;4685532;30;20554;-91
2023/02/01 11:31:12;;;;;;;20.92;3.97;;;7.00;99.90;;;;;;4709367;30;20161;-90
2023/02/01 11:33:46;;;;;;;26.17;3.70;;;7.00;99.90;;;;;;4720227;30;20041;-90
2023/02/01 11:36:20;;;;;;;21.30;3.58;;;7.10;99.90;;;;;;4712467;30;20519;-93
2023/02/01 11:39:10;;;;;;;23.33;4.00;;;7.10;99.90;;;;;;4684232;30;20518;-93
2023/02/01 11:41:54;;;;;;;26.33;4.00;;;7.10;99.90;;;;;;4693687;30;20068;-91
2023/02/01 11:44:33;;;;;;;35.28;5.45;;;7.10;99.90;;;;;;4701532;30;20102;-91
2023/02/01 11:47:37;;;;;;;26.08;4.15;;;7.10;99.90;;;;;;4685680;30;20065;-93
2023/02/01 11:50:14;;;;;;;29.63;4.43;;;7.10;99.90;;;;;;4683560;30;20054;-90
2023/02/01 11:53:22;;;;;;;24.20;4.68;;;7.10;99.90;;;;;;4676525;30;20053;-92
2023/02/01 11:56:08;;;;;;;27.33;4.40;;;7.10;99.90;;;;;;4656433;30;20053;-93
2023/02/01 11:59:07;;;;;;;22.27;3.80;;;7.10;99.90;;;;;;4684774;30;20141;-91
2023/02/01 12:01:45;;;;;;;21.10;3.88;;;7.10;99.90;;;;;;4685341;30;20613;-90
2023/02/01 12:04:29;;;;;;;26.35;4.40;;;7.20;99.90;;;;;;4687575;30;20065;-91
2023/02/01 12:07:18;;;;;;;25.85;3.78;;;7.20;99.90;;;;;;4700714;30;20041;-90
2023/02/01 12:09:49;;;;;;;25.17;4.53;;;7.20;99.90;;;;;;4683451;30;20148;-90
2023/02/01 12:22:59;;;;;;;27.20;4.38;;;7.20;99.90;;;;;;4686341;30;20054;-91
2023/02/01 12:26:04;;;;;;;27.42;4.28;;;7.20;99.90;;;;;;4701298;30;20057;-91
2023/02/01 12:29:08;;;;;;;25.60;4.43;;;7.20;99.90;;;;;;4693867;30;20407;-92
2023/02/01 12:32:28;;;;;;;29.17;3.83;;;7.20;99.90;;;;;;4686072;30;20069;-92
2023/02/01 12:35:18;;;;;;;29.85;4.30;;;7.30;99.90;;;;;;4613577;31;20071;-92
2023/02/01 12:38:49;;;;;;;26.80;4.93;;;7.30;99.90;;;;;;4613988;31;20056;-92
2023/02/01 12:45:44;;;;;;;27.27;4.40;;;7.30;99.90;;;;;;4581505;31;20064;-93
2023/02/01 12:48:50;;;;;;;33.28;4.93;;;7.30;99.90;;;;;;4569992;31;20535;-93
2023/02/01 12:55:27;;;;;;;;;;;;;;;;;;;;;
2023/02/01 13:02:06;;;;;;;;;;;7.50;99.90;;;;;;4584999;31;20499;-95
2023/02/01 13:05:02;;;;;;;;;;;;;;;;;;;;;
2023/02/01 13:08:09;;;;;;;30.92;5.70;;;7.50;99.90;;;;;;4622184;30;20063;-92
2023/02/01 13:10:58;;;;;;;35.25;6.53;;;7.60;99.90;;;;;;4633419;30;20054;-91
2023/02/01 13:14:04;;;;;;;25.20;5.13;;;7.60;99.90;;;;;;4667982;30;20476;-91
2023/02/01 13:16:44;;;;;;;36.40;4.90;;;7.60;99.90;;;;;;4668321;30;20114;-92
2023/02/01 13:20:03;;;;;;;29.00;5.97;;;7.70;99.90;;;;;;4662081;25;20066;-92
2023/02/01 13:22:41;;;;;;;26.17;4.88;;;7.70;99.90;;;;;;4633838;30;20080;-92
2023/02/01 13:25:18;;;;;;;34.83;4.82;;;7.70;99.90;;;;;;4633868;30;20094;-92
2023/02/01 13:27:45;;;;;;;25.38;4.65;;;7.70;99.90;;;;;;4641221;24;20063;-92
2023/02/01 13:30:24;;;;;;;28.50;4.65;;;7.70;99.90;;;;;;4666478;30;20061;-95
2023/02/01 13:33:14;;;;;;;29.02;4.22;;;7.70;99.90;;;;;;4652231;30;20051;-92
2023/02/01 13:36:18;;;;;;;24.38;4.55;;;7.70;99.90;;;;;;4724830;25;20065;-93
2023/02/01 13:39:21;;;;;;;28.57;4.30;;;7.70;99.90;;;;;;4685721;30;20081;-90
2023/02/01 13:42:36;;;;;;;27.27;4.60;;;7.70;99.90;;;;;;4700960;30;20431;-91
2023/02/01 13:47:54;;;;;;;27.15;4.97;;;7.80;99.90;;;;;;4696334;24;20065;-93
2023/02/01 13:50:49;;;;;;;30.63;4.72;;;7.80;99.90;;;;;;4682976;30;20142;-92
2023/02/01 13:53:28;;;;;;;32.08;5.43;;;7.80;99.90;;;;;;4675258;30;20057;-93
2023/02/01 13:56:23;;;;;;;25.42;5.22;;;7.90;99.90;;;;;;4699961;30;20096;-92
2023/02/01 13:58:51;;;;;;;29.80;5.30;;;7.80;99.90;;;;;;4685467;30;20059;-92
2023/02/01 14:05:11;;;;;;;30.85;4.40;;;7.90;99.90;;;;;;4679544;30;20088;-93
2023/02/01 14:08:02;;;;;;;32.13;5.20;;;7.90;99.90;;;;;;4674315;30;20133;-94
2023/02/01 14:11:03;;;;;;;31.08;4.70;;;7.90;99.90;;;;;;4700523;30;20069;-93
2023/02/01 14:13:40;;;;;;;34.30;4.97;;;7.90;99.90;;;;;;4678064;30;20416;-94
2023/02/01 14:16:16;;;;;;;30.63;4.82;;;7.90;99.90;;;;;;4686808;24;20113;-95
2023/02/01 14:19:15;;;;;;;30.38;5.20;;;7.90;99.90;;;;;;4671444;30;20050;-93
2023/02/01 14:22:06;;;;;;;32.10;4.85;;;8.00;99.90;;;;;;4654436;30;20058;-93
2023/02/01 14:24:53;;;;;;;30.00;4.75;;;7.90;99.90;;;;;;4660291;30;20086;-93
2023/02/01 14:27:53;;;;;;;25.55;4.57;;;8.00;99.90;;;;;;4662913;30;20046;-93
2023/02/01 14:30:19;;;;;;;31.15;5.03;;;7.90;99.90;;;;;;4649879;30;20097;-93
2023/02/01 14:32:57;;;;;;;28.88;5.45;;;8.00;99.90;;;;;;4654281;30;20089;-94
2023/02/01 14:35:31;;;;;;;29.65;6.60;;;8.00;99.90;;;;;;4650131;30;20066;-93
2023/02/01 14:38:07;;;;;;;24.63;4.75;;;8.00;99.90;;;;;;4656230;30;20062;-92
2023/02/01 14:41:28;;;;;;;31.02;4.72;;;8.00;99.90;;;;;;4645510;30;20059;-93
2023/02/01 14:44:03;;;;;;;24.85;3.80;;;7.90;99.90;;;;;;4633771;30;20046;-92
2023/02/01 14:47:08;;;;;;;26.33;4.30;;;7.90;99.90;;;;;;4630435;30;20201;-92
2023/02/01 14:50:37;;;;;;;24.90;4.53;;;7.90;99.90;;;;;;4634475;30;20063;-92
2023/02/01 14:53:32;;;;;;;25.67;4.32;;;7.90;99.90;;;;;;4649953;30;20055;-93
2023/02/01 14:56:26;;;;;;;32.42;4.68;;;7.90;99.90;;;;;;4634313;30;20061;-93
2023/02/01 14:59:23;;;;;;;29.45;4.70;;;7.90;99.90;;;;;;4635091;30;20058;-91
2023/02/01 15:02:00;;;;;;;23.00;3.80;;;7.90;99.90;;;;;;4633916;30;20133;-92